Time;durP1;ratioP1;P1;durP2;ratioP2;P2;SDS_P1;SDS_P2;PMS_P1;PMS_P2;Temp;Humidity;BMP_temperature;BMP_pressure;BME280_temperature;BME280_humidity;BME280_pressure;Samples;Min_cycle;Max_cycle;Signal;HPM_P1;HPM_P2
2023/12/11 00:02:25;;;;;;;58.95;6.70;;;;;;;8.41;100.00;99907.09;5113040;28;20031;-85
2023/12/11 00:04:51;;;;;;;53.55;6.85;;;;;;;8.47;100.00;99901.22;5113327;28;20020;-84
2023/12/11 00:07:16;;;;;;;53.45;7.63;;;;;;;8.51;100.00;99885.88;5119964;28;20028;-87
2023/12/11 00:09:41;;;;;;;53.70;7.50;;;;;;;8.56;100.00;99899.50;5118835;28;20500;-84
2023/12/11 00:12:07;;;;;;;58.78;8.25;;;;;;;8.56;100.00;99885.41;5113642;28;20030;-84
2023/12/11 00:14:32;;;;;;;68.82;7.43;;;;;;;8.58;100.00;99888.75;5112883;28;20054;-83
2023/12/11 00:16:58;;;;;;;78.18;9.48;;;;;;;8.60;100.00;99894.75;5112333;28;20397;-85
2023/12/11 00:19:23;;;;;;;58.38;7.43;;;;;;;8.65;100.00;99895.94;5112659;28;20107;-84
2023/12/11 00:21:49;;;;;;;67.05;8.98;;;;;;;8.72;100.00;99890.03;5112395;28;20028;-83
2023/12/11 00:24:14;;;;;;;69.85;8.77;;;;;;;8.72;100.00;99888.25;5094327;28;20031;-84
2023/12/11 00:26:39;;;;;;;60.00;7.90;;;;;;;8.75;100.00;99887.94;5111989;28;20059;-82
2023/12/11 00:29:05;;;;;;;62.47;8.38;;;;;;;8.79;100.00;99883.16;5112461;28;20027;-83
2023/12/11 00:31:30;;;;;;;61.97;7.18;;;;;;;8.82;100.00;99877.53;5112409;28;20469;-87
2023/12/11 00:33:56;;;;;;;65.32;9.13;;;;;;;8.85;100.00;99863.97;5112472;28;20034;-86
2023/12/11 00:36:21;;;;;;;47.20;7.32;;;;;;;8.89;100.00;99875.13;5094513;28;20023;-83
2023/12/11 00:38:47;;;;;;;56.47;7.35;;;;;;;8.90;100.00;99858.25;5112409;28;20462;-82
2023/12/11 00:41:14;;;;;;;56.92;7.57;;;;;;;8.97;100.00;99870.75;5116126;28;20419;-87
2023/12/11 00:43:40;;;;;;;57.03;7.63;;;;;;;8.99;100.00;99852.84;5116832;28;20388;-82
2023/12/11 00:46:05;;;;;;;68.53;7.53;;;;;;;9.02;100.00;99861.47;5115984;28;20051;-82
2023/12/11 00:48:30;;;;;;;57.75;8.48;;;;;;;9.03;100.00;99857.84;5116277;28;20391;-82
2023/12/11 00:50:56;;;;;;;57.30;8.07;;;;;;;9.03;100.00;99858.66;5116237;28;20031;-84
2023/12/11 00:53:21;;;;;;;54.90;8.57;;;;;;;9.06;100.00;99855.72;5116045;28;20023;-84
2023/12/11 00:55:46;;;;;;;64.53;7.75;;;;;;;9.11;100.00;99857.91;5116571;28;20023;-85
2023/12/11 00:58:12;;;;;;;68.15;9.32;;;;;;;9.11;100.00;99860.56;5116071;28;20024;-88
2023/12/11 01:00:37;;;;;;;61.38;6.72;;;;;;;9.14;100.00;99853.13;5115641;28;20103;-84
2023/12/11 01:03:03;;;;;;;80.43;10.50;;;;;;;9.13;100.00;99846.13;5115401;28;20116;-83
2023/12/11 01:05:28;;;;;;;54.67;7.70;;;;;;;9.11;100.00;99852.59;5116261;28;20366;-84
2023/12/11 01:07:53;;;;;;;57.63;7.35;;;;;;;9.06;100.00;99839.81;5115818;28;20023;-88
2023/12/11 01:10:19;;;;;;;52.47;7.03;;;;;;;9.05;100.00;99842.63;5115675;28;20055;-82
2023/12/11 01:12:44;;;;;;;67.13;9.00;;;;;;;9.00;100.00;99837.75;5116050;28;20100;-83
2023/12/11 01:15:10;;;;;;;62.63;8.65;;;;;;;9.00;100.00;99833.28;5115734;28;20105;-83
2023/12/11 01:17:36;;;;;;;47.70;7.50;;;;;;;8.99;100.00;99834.25;5115798;28;20024;-87
2023/12/11 01:20:02;;;;;;;55.78;6.95;;;;;;;8.97;100.00;99835.41;5097305;28;20034;-84
2023/12/11 01:22:28;;;;;;;63.35;7.28;;;;;;;8.90;100.00;99826.41;5115604;28;20035;-86
2023/12/11 01:24:53;;;;;;;57.20;7.88;;;;;;;8.85;100.00;99818.88;5115553;28;20037;-90
2023/12/11 01:27:18;;;;;;;56.88;8.15;;;;;;;8.72;100.00;99813.13;5116107;28;20043;-85
2023/12/11 01:29:44;;;;;;;59.50;8.30;;;;;;;8.62;100.00;99810.56;5115673;28;20463;-83
2023/12/11 01:32:09;;;;;;;54.20;6.82;;;;;;;8.55;100.00;99817.44;5116017;28;20433;-85
2023/12/11 01:34:34;;;;;;;71.07;7.57;;;;;;;8.48;100.00;99811.94;5115129;28;20028;-84
2023/12/11 01:37:00;;;;;;;62.83;7.72;;;;;;;8.37;100.00;99818.22;5115701;28;20028;-84
2023/12/11 01:39:25;;;;;;;55.28;7.63;;;;;;;8.33;100.00;99822.19;5115219;28;20418;-82
2023/12/11 01:41:51;;;;;;;53.38;7.82;;;;;;;8.30;100.00;99825.97;5115679;28;20107;-83
2023/12/11 01:44:16;;;;;;;56.55;7.07;;;;;;;8.29;100.00;99828.75;5115922;28;20439;-87
2023/12/11 01:46:41;;;;;;;58.08;7.72;;;;;;;8.26;100.00;99808.69;5115788;28;20032;-85
2023/12/11 01:49:08;;;;;;;55.80;7.70;;;;;;;8.20;100.00;99811.94;5115680;28;20028;-80
2023/12/11 01:51:35;;;;;;;61.95;6.85;;;;;;;8.12;100.00;99807.38;5115956;28;20015;-83
2023/12/11 01:54:00;;;;;;;61.83;7.55;;;;;;;8.09;100.00;99805.03;5115153;28;20028;-83
2023/12/11 01:56:26;;;;;;;55.88;6.85;;;;;;;8.03;100.00;99810.91;5115668;28;20102;-83
2023/12/11 01:58:51;;;;;;;45.47;7.05;;;;;;;8.03;100.00;99805.63;5115924;28;20031;-84
2023/12/11 02:01:21;;;;;;;66.85;7.43;;;;;;;8.05;100.00;99798.34;5097109;28;20071;-82
2023/12/11 02:03:47;;;;;;;64.95;7.35;;;;;;;8.05;100.00;99800.19;5115069;28;20038;-79
2023/12/11 02:06:13;;;;;;;54.05;7.75;;;;;;;8.08;100.00;99795.41;5116192;28;20351;-81
2023/12/11 02:08:38;;;;;;;59.90;8.30;;;;;;;8.14;100.00;99806.41;5115447;28;20028;-83
2023/12/11 02:11:04;;;;;;;63.13;7.70;;;;;;;8.17;100.00;99792.88;5115533;28;20346;-83
2023/12/11 02:13:29;;;;;;;55.08;7.57;;;;;;;8.24;100.00;99786.81;5115126;28;20035;-83
2023/12/11 02:15:56;;;;;;;53.15;7.40;;;;;;;8.25;100.00;99791.09;5114733;28;20435;-82
2023/12/11 02:18:21;;;;;;;55.15;7.28;;;;;;;8.33;100.00;99778.94;5114671;28;20031;-79
2023/12/11 02:20:47;;;;;;;58.80;7.22;;;;;;;8.36;100.00;99779.47;5114431;28;20465;-82
2023/12/11 02:23:22;;;;;;;50.75;6.93;;;;;;;8.42;100.00;99772.72;5114611;28;20038;-79
2023/12/11 02:25:59;;;;;;;62.10;8.38;;;;;;;8.46;100.00;99766.16;5114593;28;20089;-80
2023/12/11 02:28:25;;;;;;;42.92;6.93;;;;;;;8.48;100.00;99769.53;5114734;28;20043;-83
2023/12/11 02:30:50;;;;;;;50.10;6.80;;;;;;;8.49;100.00;99765.03;5114266;28;20096;-84
2023/12/11 02:33:16;;;;;;;47.03;6.18;;;;;;;8.53;100.00;99758.44;5114038;28;20115;-84
2023/12/11 02:35:43;;;;;;;66.95;6.53;;;;;;;8.57;100.00;99757.13;5114126;28;20028;-80
2023/12/11 02:38:09;;;;;;;55.55;6.75;;;;;;;8.61;100.00;99751.41;5114190;28;20082;-82
2023/12/11 02:40:34;;;;;;;61.97;7.35;;;;;;;8.60;100.00;99757.69;5114215;28;20459;-84
2023/12/11 02:42:59;;;;;;;46.40;7.45;;;;;;;8.65;100.00;99758.03;5114343;28;20060;-85
2023/12/11 02:45:25;;;;;;;44.60;6.57;;;;;;;8.73;100.00;99730.78;5114322;28;20035;-82
2023/12/11 02:47:50;;;;;;;54.50;6.65;;;;;;;8.80;100.00;99729.16;5114080;28;20055;-84
2023/12/11 02:50:16;;;;;;;44.08;7.18;;;;;;;8.81;100.00;99722.06;5113663;28;20455;-78
2023/12/11 02:52:41;;;;;;;59.65;6.82;;;;;;;8.80;100.00;99729.16;5113399;28;20110;-84
2023/12/11 02:55:07;;;;;;;46.38;6.07;;;;;;;8.83;100.00;99730.69;5114218;28;20024;-85
2023/12/11 02:57:32;;;;;;;38.85;6.97;;;;;;;8.85;100.00;99723.38;5095460;28;20034;-86
2023/12/11 02:59:57;;;;;;;52.03;7.57;;;;;;;8.88;100.00;99720.41;5114020;28;20077;-83
2023/12/11 03:02:23;;;;;;;43.00;6.57;;;;;;;8.91;100.00;99719.28;5113199;28;20051;-81
2023/12/11 03:04:48;;;;;;;54.33;7.05;;;;;;;8.96;100.00;99703.75;5113939;28;20080;-85
2023/12/11 03:07:15;;;;;;;57.03;7.28;;;;;;;8.96;100.00;99725.78;5113586;28;20394;-83
2023/12/11 03:09:40;;;;;;;43.45;6.60;;;;;;;8.99;100.00;99709.56;5113263;28;20049;-85
2023/12/11 03:12:06;;;;;;;55.67;6.82;;;;;;;9.03;100.00;99693.31;5113719;28;20019;-81
2023/12/11 03:14:31;;;;;;;47.65;7.18;;;;;;;9.02;100.00;99699.63;5113290;28;20067;-88
2023/12/11 03:16:57;;;;;;;41.35;6.93;;;;;;;8.98;100.00;99691.97;5113181;28;20359;-83
2023/12/11 03:19:23;;;;;;;47.88;7.13;;;;;;;8.97;100.00;99700.94;5113275;28;20489;-82
2023/12/11 03:21:49;;;;;;;47.90;7.40;;;;;;;8.96;100.00;99693.97;5113190;28;20474;-86
2023/12/11 03:24:14;;;;;;;56.15;7.38;;;;;;;8.96;100.00;99683.34;5113294;28;20028;-84
2023/12/11 03:26:40;;;;;;;51.50;6.75;;;;;;;8.92;100.00;99682.00;5113143;28;20128;-82
2023/12/11 03:29:05;;;;;;;65.60;7.90;;;;;;;8.90;100.00;99691.13;5112970;28;20042;-82
2023/12/11 03:31:30;;;;;;;52.90;7.75;;;;;;;8.87;100.00;99686.09;5113314;28;20020;-86
2023/12/11 03:33:56;;;;;;;46.75;6.50;;;;;;;8.72;100.00;99709.69;5114073;28;20422;-84
2023/12/11 03:36:21;;;;;;;58.40;7.40;;;;;;;8.57;100.00;99682.91;5114384;28;20051;-81
2023/12/11 03:38:47;;;;;;;55.25;7.40;;;;;;;8.49;100.00;99693.47;5113678;28;20120;-84
2023/12/11 03:41:12;;;;;;;48.75;7.18;;;;;;;8.44;100.00;99705.34;5113557;28;20065;-82
2023/12/11 03:43:37;;;;;;;62.97;8.05;;;;;;;8.43;100.00;99695.72;5100877;28;20087;-82
2023/12/11 03:46:04;;;;;;;54.80;8.05;;;;;;;8.45;100.00;99685.00;5127182;28;20093;-83
2023/12/11 03:48:30;;;;;;;47.45;6.35;;;;;;;8.42;100.00;99686.09;5109479;28;20027;-83
2023/12/11 03:50:56;;;;;;;67.78;9.40;;;;;;;8.40;100.00;99671.31;5124755;28;20035;-84
2023/12/11 03:53:21;;;;;;;48.58;7.57;;;;;;;8.37;100.00;99676.94;5115144;28;20092;-83
2023/12/11 03:55:47;;;;;;;52.22;7.03;;;;;;;8.38;100.00;99678.59;5112889;28;20031;-81
2023/12/11 03:58:12;;;;;;;46.65;6.50;;;;;;;8.41;100.00;99678.28;5112838;28;20035;-83
2023/12/11 04:00:38;;;;;;;54.35;6.70;;;;;;;8.44;100.00;99673.53;5112767;28;20411;-84
2023/12/11 04:03:03;;;;;;;52.22;8.25;;;;;;;8.46;100.00;99676.03;5112788;28;20106;-82
2023/12/11 04:05:28;;;;;;;57.40;7.40;;;;;;;8.50;100.00;99679.22;5112504;28;20035;-85
2023/12/11 04:07:54;;;;;;;57.38;7.30;;;;;;;8.53;100.00;99676.25;5112976;28;20091;-85
2023/12/11 04:10:19;;;;;;;44.08;6.07;;;;;;;8.55;100.00;99671.63;5112689;28;20019;-84
2023/12/11 04:12:45;;;;;;;61.70;7.13;;;;;;;8.55;100.00;99666.31;5112563;28;20024;-82
2023/12/11 04:15:10;;;;;;;48.33;6.72;;;;;;;8.59;100.00;99671.16;5114493;28;20359;-82
2023/12/11 04:17:36;;;;;;;54.10;7.38;;;;;;;8.60;100.00;99661.41;5116269;28;20374;-85
2023/12/11 04:20:03;;;;;;;54.90;7.95;;;;;;;8.62;100.00;99676.16;5116216;28;20031;-84
2023/12/11 04:22:28;;;;;;;43.53;5.97;;;;;;;8.62;100.00;99657.59;5116249;28;20077;-82
2023/12/11 04:24:53;;;;;;;51.42;6.38;;;;;;;8.66;100.00;99666.09;5116918;28;20028;-82
2023/12/11 04:27:19;;;;;;;39.83;6.22;;;;;;;8.71;100.00;99670.91;5097772;28;20050;-82
2023/12/11 04:29:44;;;;;;;42.30;5.50;;;;;;;8.70;100.00;99656.81;5116082;28;20126;-82
2023/12/11 04:32:09;;;;;;;33.42;5.78;;;;;;;8.71;100.00;99647.88;5116210;28;20028;-82
2023/12/11 04:34:35;;;;;;;41.53;5.53;;;;;;;8.72;100.00;99640.75;5116398;28;20058;-87
2023/12/11 04:37:00;;;;;;;41.05;5.30;;;;;;;8.74;100.00;99647.56;5116752;28;20020;-82
2023/12/11 04:39:25;;;;;;;50.83;5.28;;;;;;;8.73;100.00;99640.63;5116088;28;20047;-82
2023/12/11 04:41:51;;;;;;;46.90;6.20;;;;;;;8.71;100.00;99647.88;5116220;28;20024;-83
2023/12/11 04:44:16;;;;;;;39.67;5.45;;;;;;;8.66;100.00;99634.28;5116792;28;20039;-82
2023/12/11 04:46:42;;;;;;;46.53;5.75;;;;;;;8.62;100.00;99632.91;5116087;28;20027;-85
2023/12/11 04:49:07;;;;;;;51.22;6.05;;;;;;;8.58;100.00;99640.34;5098204;28;20156;-81
2023/12/11 04:51:32;;;;;;;43.65;6.85;;;;;;;8.55;100.00;99623.91;5115607;28;20038;-82
2023/12/11 04:53:58;;;;;;;40.50;6.03;;;;;;;8.55;100.00;99640.63;5116536;28;20114;-81
2023/12/11 04:56:24;;;;;;;44.00;6.15;;;;;;;8.52;100.00;99630.34;5116003;28;20060;-82
2023/12/11 04:58:50;;;;;;;48.40;7.15;;;;;;;8.53;100.00;99625.91;5115655;28;20019;-86
2023/12/11 05:01:15;;;;;;;48.00;6.43;;;;;;;8.54;100.00;99638.16;5116238;28;20117;-84
2023/12/11 05:03:40;;;;;;;31.75;6.20;;;;;;;8.58;100.00;99613.00;5116976;28;20019;-84
2023/12/11 05:06:06;;;;;;;53.22;6.88;;;;;;;8.58;100.00;99624.44;5116502;28;20035;-81
2023/12/11 05:08:32;;;;;;;35.92;6.40;;;;;;;8.61;100.00;99623.28;5116046;28;20028;-82
2023/12/11 05:10:57;;;;;;;35.78;5.60;;;;;;;8.64;100.00;99610.56;5116779;28;20055;-82
2023/12/11 05:13:23;;;;;;;40.28;6.57;;;;;;;8.66;100.00;99613.06;5116136;28;20024;-81
2023/12/11 05:15:48;;;;;;;31.27;5.85;;;;;;;8.68;100.00;99621.69;5115950;28;20056;-83
2023/12/11 05:18:13;;;;;;;42.47;6.05;;;;;;;8.65;100.00;99614.03;5115930;28;20036;-81
2023/12/11 05:20:39;;;;;;;30.58;5.03;;;;;;;8.64;100.00;99609.72;5097553;28;20020;-85
2023/12/11 05:23:04;;;;;;;41.63;5.32;;;;;;;8.64;100.00;99617.66;5097624;28;20034;-82
2023/12/11 05:25:30;;;;;;;37.85;6.28;;;;;;;8.63;100.00;99614.19;5118928;28;20023;-83
2023/12/11 05:27:55;;;;;;;33.97;4.13;;;;;;;8.67;100.00;99608.56;5118783;28;20447;-84
2023/12/11 05:30:21;;;;;;;40.47;5.20;;;;;;;8.61;100.00;99608.22;5115090;28;20379;-82
2023/12/11 05:32:46;;;;;;;30.27;4.63;;;;;;;8.56;100.00;99602.53;5115279;28;20074;-80
2023/12/11 05:35:12;;;;;;;26.17;4.38;;;;;;;8.51;100.00;99601.34;5115026;28;20055;-81
2023/12/11 05:37:37;;;;;;;26.73;4.18;;;;;;;8.46;100.00;99591.22;5115435;28;20034;-82
2023/12/11 05:40:03;;;;;;;33.20;4.60;;;;;;;8.41;100.00;99607.53;5116015;28;20032;-81
2023/12/11 05:42:28;;;;;;;28.15;3.90;;;;;;;8.40;100.00;99607.69;5115931;28;20030;-83
2023/12/11 05:44:54;;;;;;;25.23;3.42;;;;;;;8.38;100.00;99585.84;5096989;28;20030;-86
2023/12/11 05:47:19;;;;;;;25.08;4.55;;;;;;;8.46;100.00;99597.34;5097372;28;20114;-86
2023/12/11 05:49:44;;;;;;;26.17;3.83;;;;;;;8.52;100.00;99614.44;5114539;28;20039;-82
2023/12/11 05:52:10;;;;;;;25.67;4.05;;;;;;;8.63;100.00;99608.06;5115391;28;20428;-83
2023/12/11 05:54:35;;;;;;;18.20;3.05;;;;;;;8.71;100.00;99586.88;5115821;28;20500;-82
2023/12/11 05:57:00;;;;;;;25.92;4.07;;;;;;;8.75;100.00;99593.53;5114700;28;20023;-83
2023/12/11 05:59:26;;;;;;;20.85;3.55;;;;;;;8.78;100.00;99595.88;5115852;28;20032;-86
2023/12/11 06:01:51;;;;;;;22.10;4.13;;;;;;;8.81;100.00;99594.75;5116259;28;20069;-82
2023/12/11 06:04:16;;;;;;;26.20;4.43;;;;;;;8.71;100.00;99616.06;5115848;28;20031;-82
2023/12/11 06:06:42;;;;;;;30.40;4.43;;;;;;;8.60;100.00;99624.28;5114244;28;20024;-86
2023/12/11 06:09:07;;;;;;;27.85;4.35;;;;;;;8.46;100.00;99649.53;5115553;28;20111;-83
2023/12/11 06:11:32;;;;;;;25.92;3.85;;;;;;;8.31;100.00;99633.31;5115776;28;20020;-85
2023/12/11 06:13:58;;;;;;;31.77;4.15;;;;;;;8.14;100.00;99673.94;5115429;28;20473;-83
2023/12/11 06:16:24;;;;;;;27.00;3.80;;;;;;;8.03;100.00;99659.06;5115762;28;20043;-81
2023/12/11 06:18:49;;;;;;;31.77;4.43;;;;;;;7.90;100.00;99676.19;5115824;28;20040;-85
2023/12/11 06:21:19;;;;;;;28.17;3.90;;;;;;;7.86;100.00;99652.78;5116593;28;20038;-85
2023/12/11 06:23:45;;;;;;;25.30;4.55;;;;;;;7.84;100.00;99676.78;5119404;28;20024;-86
2023/12/11 06:26:31;;;;;;;40.17;4.70;;;;;;;7.84;100.00;99660.06;5081502;28;1104695;-87
2023/12/11 06:29:00;;;;;;;37.35;4.18;;;;;;;7.82;100.00;99673.44;5119557;28;20035;-86
2023/12/11 06:31:26;;;;;;;27.08;4.00;;;;;;;7.81;100.00;99673.59;5117992;28;20054;-81
2023/12/11 06:33:52;;;;;;;27.17;4.22;;;;;;;7.82;100.00;99683.19;5117084;28;20466;-84
2023/12/11 06:36:17;;;;;;;33.67;4.00;;;;;;;7.85;100.00;99667.00;5119335;28;20111;-84
2023/12/11 06:38:43;;;;;;;29.00;4.25;;;;;;;7.88;100.00;99677.31;5116497;28;20032;-84
2023/12/11 06:41:08;;;;;;;28.23;3.78;;;;;;;7.95;100.00;99688.97;5099418;28;20031;-87
2023/12/11 06:43:35;;;;;;;31.88;4.65;;;;;;;7.97;100.00;99687.00;5116729;28;20027;-84
2023/12/11 06:46:01;;;;;;;31.27;3.47;;;;;;;8.03;100.00;99704.97;5117254;28;20043;-85
2023/12/11 06:48:26;;;;;;;40.67;5.03;;;;;;;8.02;100.00;99727.13;5119908;28;20111;-85
2023/12/11 06:50:53;;;;;;;32.65;3.75;;;;;;;8.04;100.00;99716.38;5127533;28;20059;-81
2023/12/11 06:53:19;;;;;;;26.38;3.40;;;;;;;8.02;100.00;99731.59;5129604;28;20024;-81
2023/12/11 06:55:44;;;;;;;24.63;3.33;;;;;;;8.00;100.00;99718.50;5129806;28;20096;-86
2023/12/11 06:58:09;;;;;;;23.70;3.72;;;;;;;7.99;100.00;99732.72;5129643;28;20034;-86
2023/12/11 07:00:35;;;;;;;30.20;3.97;;;;;;;7.99;100.00;99718.66;5129206;28;20024;-84
2023/12/11 07:03:00;;;;;;;18.30;2.85;;;;;;;7.95;100.00;99745.41;5128394;28;20032;-85
2023/12/11 07:05:26;;;;;;;14.30;2.42;;;;;;;7.82;100.00;99760.81;5123454;28;20078;-86
2023/12/11 07:07:51;;;;;;;11.35;2.28;;;;;;;7.71;100.00;99759.22;5118855;28;20057;-82
2023/12/11 07:10:16;;;;;;;27.10;2.70;;;;;;;7.65;100.00;99777.50;5115725;28;20027;-87
2023/12/11 07:12:45;;;;;;;14.82;2.45;;;;;;;7.61;100.00;99792.84;5119195;28;20049;-84
2023/12/11 07:15:11;;;;;;;14.18;3.08;;;;;;;7.64;100.00;99789.06;5102097;28;20020;-86
2023/12/11 07:17:36;;;;;;;19.80;3.00;;;;;;;7.56;100.00;99789.81;5118638;28;20038;-81
2023/12/11 07:20:02;;;;;;;33.85;3.88;;;;;;;7.52;100.00;99809.59;5119621;28;20091;-83
2023/12/11 07:22:28;;;;;;;23.27;3.50;;;;;;;7.48;100.00;99809.06;5121458;28;20032;-82
2023/12/11 07:24:53;;;;;;;22.13;3.10;;;;;;;7.44;100.00;99799.72;5121212;28;20020;-82
2023/12/11 07:27:18;;;;;;;24.38;4.30;;;;;;;7.49;100.00;99809.88;5121257;28;20179;-84
2023/12/11 07:29:44;;;;;;;17.95;2.90;;;;;;;7.47;100.00;99827.72;5123133;28;20041;-80
2023/12/11 07:32:10;;;;;;;24.02;3.03;;;;;;;7.46;100.00;99836.66;5120148;28;20053;-81
2023/12/11 07:34:35;;;;;;;24.08;3.33;;;;;;;7.43;100.00;99840.41;5119264;28;20118;-82
2023/12/11 07:37:01;;;;;;;23.55;3.70;;;;;;;7.43;100.00;99847.53;5122092;28;20456;-79
2023/12/11 07:39:27;;;;;;;25.83;3.50;;;;;;;7.45;100.00;99846.41;5123091;28;20027;-81
2023/12/11 07:41:54;;;;;;;20.25;3.20;;;;;;;7.46;100.00;99856.00;5122801;28;20137;-81
2023/12/11 07:44:20;;;;;;;21.33;3.53;;;;;;;7.46;100.00;99879.00;5117243;28;20119;-84
2023/12/11 07:46:45;;;;;;;25.13;4.55;;;;;;;7.43;100.00;99887.22;5116808;28;20031;-82
2023/12/11 07:49:13;;;;;;;10.07;2.40;;;;;;;7.45;100.00;99940.84;5114204;28;20110;-82
2023/12/11 07:51:39;;;;;;;16.27;3.60;;;;;;;7.44;100.00;99892.38;5113590;28;20027;-83
2023/12/11 07:54:04;;;;;;;23.00;4.00;;;;;;;7.37;100.00;99912.44;5113435;28;20076;-80
2023/12/11 07:56:30;;;;;;;20.48;4.07;;;;;;;7.38;100.00;99924.69;5114317;28;20130;-82
2023/12/11 07:58:55;;;;;;;25.30;4.20;;;;;;;7.38;100.00;99917.59;5112970;28;20107;-82
2023/12/11 08:01:20;;;;;;;26.58;4.40;;;;;;;7.40;100.00;99913.00;5113962;28;20042;-82
2023/12/11 08:03:46;;;;;;;26.10;4.45;;;;;;;7.43;100.00;99932.22;5116761;28;20038;-79
2023/12/11 08:06:11;;;;;;;22.20;3.78;;;;;;;7.45;100.00;99936.41;5112780;28;20341;-81
2023/12/11 08:08:43;;;;;;;19.67;3.20;;;;;;;7.51;100.00;99945.56;5112560;28;20437;-77
2023/12/11 08:11:21;;;;;;;17.30;3.28;;;;;;;7.54;100.00;99935.53;5114808;28;20023;-78
2023/12/11 08:13:46;;;;;;;18.10;3.00;;;;;;;7.56;100.00;99946.81;5116360;28;20083;-78
2023/12/11 08:16:13;;;;;;;13.52;2.95;;;;;;;7.64;100.00;99959.34;5119375;28;20062;-83
2023/12/11 08:18:40;;;;;;;19.60;3.35;;;;;;;7.72;100.00;99945.41;5112963;28;20052;-81
2023/12/11 08:21:06;;;;;;;20.60;3.47;;;;;;;7.79;100.00;99937.72;5116299;28;20035;-87
2023/12/11 08:23:31;;;;;;;17.00;3.30;;;;;;;7.84;100.00;99952.22;5118660;28;20024;-83
2023/12/11 08:25:57;;;;;;;20.10;3.90;;;;;;;7.87;100.00;99957.22;5114159;28;20052;-80
2023/12/11 08:28:22;;;;;;;19.42;4.13;;;;;;;7.88;100.00;99971.28;5112298;28;20035;-78
2023/12/11 08:30:47;;;;;;;15.40;3.40;;;;;;;7.87;100.00;99975.75;5112087;28;20401;-81
2023/12/11 08:33:13;;;;;;;25.73;3.55;;;;;;;7.91;100.00;99979.81;5093569;28;20028;-84
2023/12/11 08:35:39;;;;;;;16.35;2.80;;;;;;;7.94;100.00;99979.50;5111902;28;20106;-82
2023/12/11 08:38:04;;;;;;;20.65;2.97;;;;;;;7.98;100.00;99989.81;5111814;28;20100;-78
2023/12/11 08:40:31;;;;;;;18.05;2.80;;;;;;;8.03;100.00;99995.50;5093813;28;20401;-79
2023/12/11 08:42:57;;;;;;;22.63;3.28;;;;;;;8.08;100.00;100011.84;5112403;28;20032;-80
2023/12/11 08:45:23;;;;;;;28.52;3.40;;;;;;;8.08;100.00;100014.47;5112659;28;20046;-79
2023/12/11 08:47:48;;;;;;;17.55;3.42;;;;;;;8.06;100.00;100027.03;5112066;28;20035;-80
2023/12/11 08:50:14;;;;;;;18.15;3.30;;;;;;;8.06;100.00;100009.31;5112333;28;20020;-83
2023/12/11 08:52:42;;;;;;;20.38;3.95;;;;;;;8.06;100.00;100021.72;5112378;28;20394;-81
2023/12/11 08:55:08;;;;;;;14.15;2.75;;;;;;;8.10;100.00;100039.00;5112878;28;20106;-79
2023/12/11 08:57:34;;;;;;;18.65;3.40;;;;;;;8.12;100.00;100047.66;5112476;28;20221;-81
2023/12/11 08:59:59;;;;;;;30.42;4.25;;;;;;;8.08;100.00;100047.09;5112423;28;20027;-80
2023/12/11 09:02:25;;;;;;;17.58;3.25;;;;;;;8.08;100.00;100072.78;5115919;28;20027;-79
2023/12/11 09:04:50;;;;;;;22.35;4.70;;;;;;;8.07;100.00;100063.16;5116621;28;20021;-85
2023/12/11 09:07:15;;;;;;;14.27;3.47;;;;;;;8.09;100.00;100069.97;5115917;28;20031;-84
2023/12/11 09:09:41;;;;;;;16.42;3.30;;;;;;;8.04;100.00;100088.09;5116354;28;20459;-79
2023/12/11 09:12:06;;;;;;;24.58;4.10;;;;;;;8.06;100.00;100094.13;5115932;28;20035;-80
2023/12/11 09:14:33;;;;;;;26.38;4.50;;;;;;;8.04;100.00;100111.13;5115481;28;20027;-76
2023/12/11 09:16:59;;;;;;;22.38;4.28;;;;;;;8.06;100.00;100102.06;5116062;28;20451;-79
2023/12/11 09:19:25;;;;;;;19.65;4.22;;;;;;;8.05;100.00;100108.31;5115829;28;20030;-80
2023/12/11 09:21:50;;;;;;;26.30;4.05;;;;;;;8.08;100.00;100113.34;5115845;28;20028;-79
2023/12/11 09:24:15;;;;;;;22.67;3.58;;;;;;;8.07;100.00;100114.31;5115221;28;20059;-79
2023/12/11 09:26:41;;;;;;;20.23;3.33;;;;;;;8.14;100.00;100111.13;5115191;28;20063;-78
2023/12/11 09:29:06;;;;;;;19.48;2.97;;;;;;;8.16;100.00;100136.47;5115591;28;20040;-76
2023/12/11 09:31:32;;;;;;;17.30;2.95;;;;;;;8.20;100.00;100137.06;5115231;28;20020;-79
2023/12/11 09:33:57;;;;;;;17.10;2.70;;;;;;;8.21;100.00;100146.66;5115674;28;20080;-81
2023/12/11 09:36:22;;;;;;;17.73;2.95;;;;;;;8.26;100.00;100139.97;5114882;28;20106;-80
2023/12/11 09:38:48;;;;;;;23.13;2.78;;;;;;;8.30;100.00;100144.00;5115209;28;20027;-76
2023/12/11 09:41:13;;;;;;;15.00;2.58;;;;;;;8.32;100.00;100145.69;5115426;28;20031;-83
2023/12/11 09:43:39;;;;;;;11.48;2.78;;;;;;;8.32;100.00;100154.47;5115210;28;20452;-86
2023/12/11 09:46:08;;;;;;;11.80;2.40;;;;;;;8.35;100.00;100162.13;5114827;28;20396;-82
2023/12/11 09:48:33;;;;;;;12.70;2.58;;;;;;;8.36;100.00;100170.91;5115069;28;20038;-81
2023/12/11 09:51:00;;;;;;;9.88;2.20;;;;;;;8.38;100.00;100188.38;5114675;28;20087;-81
2023/12/11 09:53:26;;;;;;;16.15;2.45;;;;;;;8.39;100.00;100183.88;5114521;28;20070;-82
2023/12/11 09:55:51;;;;;;;10.90;2.03;;;;;;;8.39;100.00;100190.06;5114742;28;20072;-80
2023/12/11 09:58:20;;;;;;;10.15;2.20;;;;;;;8.35;100.00;100193.13;5114547;28;20020;-83
2023/12/11 10:00:45;;;;;;;8.73;2.20;;;;;;;8.35;100.00;100201.06;5115325;28;20107;-82
2023/12/11 10:03:11;;;;;;;14.65;2.33;;;;;;;8.32;100.00;100207.50;5114571;28;20028;-82
2023/12/11 10:05:36;;;;;;;17.75;3.42;;;;;;;8.33;100.00;100213.63;5114905;28;20039;-84
2023/12/11 10:08:02;;;;;;;11.07;3.00;;;;;;;8.32;100.00;100228.69;5114458;28;20035;-80
2023/12/11 10:10:33;;;;;;;14.23;3.13;;;;;;;8.33;100.00;100229.53;5114391;28;20118;-83
2023/12/11 10:13:00;;;;;;;15.80;2.72;;;;;;;8.33;100.00;100237.47;5112845;28;20352;-79
2023/12/11 10:15:34;;;;;;;15.23;2.70;;;;;;;8.38;100.00;100232.59;5096444;28;20397;-80
2023/12/11 10:18:08;;;;;;;12.63;3.30;;;;;;;8.35;100.00;100230.25;5114789;28;20110;-82
2023/12/11 10:20:35;;;;;;;16.83;3.15;;;;;;;8.29;100.00;100237.75;5115101;28;20030;-82
2023/12/11 10:23:18;;;;;;;10.77;2.25;;;;;;;8.27;100.00;100249.47;5115038;28;20058;-89
2023/12/11 10:25:52;;;;;;;10.57;2.70;;;;;;;8.25;100.00;100267.31;5115227;28;20024;-82
2023/12/11 10:28:21;;;;;;;17.73;3.20;;;;;;;8.22;100.00;100265.78;5114523;28;20028;-82
2023/12/11 10:30:51;;;;;;;23.40;5.20;;;;;;;8.22;100.00;100275.56;5114830;28;20019;-81
2023/12/11 10:33:18;;;;;;;17.90;3.78;;;;;;;8.19;100.00;100265.22;5115311;28;20023;-85
2023/12/11 10:35:44;;;;;;;17.90;3.55;;;;;;;8.19;100.00;100271.34;5115068;28;20107;-83
2023/12/11 10:38:09;;;;;;;27.25;3.33;;;;;;;8.25;100.00;100275.28;5114225;28;20111;-80
2023/12/11 10:40:41;;;;;;;16.88;3.63;;;;;;;8.32;100.00;100281.72;5114373;28;20020;-80
2023/12/11 10:43:07;;;;;;;19.95;3.22;;;;;;;8.35;100.00;100292.03;5114763;28;20034;-84
2023/12/11 10:45:33;;;;;;;14.40;3.47;;;;;;;8.39;100.00;100287.28;5114653;28;20032;-86
2023/12/11 10:48:00;;;;;;;19.83;3.38;;;;;;;8.38;100.00;100294.41;5115245;28;20028;-85
2023/12/11 10:50:26;;;;;;;12.90;2.72;;;;;;;8.36;100.00;100296.38;5114907;28;20031;-86
2023/12/11 10:52:52;;;;;;;16.02;3.20;;;;;;;8.33;100.00;100288.69;5115054;28;20390;-79
2023/12/11 10:55:17;;;;;;;16.65;3.00;;;;;;;8.35;100.00;100285.91;5122912;28;20035;-81
2023/12/11 10:57:45;;;;;;;16.85;3.55;;;;;;;8.42;100.00;100279.91;5117568;28;20087;-81
2023/12/11 11:00:13;;;;;;;24.90;3.72;;;;;;;8.43;100.00;100299.28;5099738;28;20049;-82
2023/12/11 11:02:43;;;;;;;13.55;2.65;;;;;;;8.51;100.00;100303.94;5116898;28;20035;-85
2023/12/11 11:05:09;;;;;;;17.70;2.88;;;;;;;8.53;100.00;100294.03;5115394;28;20019;-82
2023/12/11 11:07:38;;;;;;;13.18;2.20;;;;;;;8.53;100.00;100299.34;5095962;28;20077;-82
2023/12/11 11:10:15;;;;;;;19.30;3.15;;;;;;;8.49;100.00;100303.25;5113908;28;20459;-84
2023/12/11 11:12:53;;;;;;;9.50;3.03;;;;;;;8.44;100.00;100314.25;5114422;28;20033;-83
2023/12/11 11:15:24;;;;;;;12.00;2.65;;;;;;;8.39;100.00;100311.13;5114387;28;20381;-82
2023/12/11 11:18:03;;;;;;;11.60;2.65;;;;;;;8.25;100.00;100331.75;5096290;28;20452;-81
2023/12/11 11:20:34;;;;;;;12.77;3.17;;;;;;;8.11;100.00;100322.41;5114307;28;20032;-88